sensor_id;sensor_type;location;lat;lon;timestamp;P1;durP1;ratioP1;P2;durP2;ratioP2
12356;SDS011;6243;51.244;6.774;2023-11-22T00:00:35;10.80;;;8.30;;
12356;SDS011;6243;51.244;6.774;2023-11-22T00:03:00;9.13;;;8.23;;
12356;SDS011;6243;51.244;6.774;2023-11-22T00:05:26;9.67;;;8.63;;
12356;SDS011;6243;51.244;6.774;2023-11-22T00:07:53;9.87;;;8.47;;
12356;SDS011;6243;51.244;6.774;2023-11-22T00:10:18;9.60;;;8.60;;
12356;SDS011;6243;51.244;6.774;2023-11-22T00:12:44;9.17;;;8.17;;
12356;SDS011;6243;51.244;6.774;2023-11-22T00:15:10;10.00;;;8.73;;
12356;SDS011;6243;51.244;6.774;2023-11-22T00:17:35;10.87;;;9.07;;
12356;SDS011;6243;51.244;6.774;2023-11-22T00:20:01;11.17;;;8.87;;
12356;SDS011;6243;51.244;6.774;2023-11-22T00:22:27;11.40;;;9.07;;
12356;SDS011;6243;51.244;6.774;2023-11-22T00:24:54;11.23;;;8.90;;
12356;SDS011;6243;51.244;6.774;2023-11-22T00:27:19;10.33;;;9.03;;
12356;SDS011;6243;51.244;6.774;2023-11-22T00:29:45;9.73;;;8.67;;
12356;SDS011;6243;51.244;6.774;2023-11-22T00:32:11;10.27;;;8.63;;
12356;SDS011;6243;51.244;6.774;2023-11-22T00:34:36;11.13;;;8.37;;
12356;SDS011;6243;51.244;6.774;2023-11-22T00:37:02;9.77;;;8.20;;
12356;SDS011;6243;51.244;6.774;2023-11-22T00:39:27;10.97;;;8.00;;
12356;SDS011;6243;51.244;6.774;2023-11-22T00:41:54;10.77;;;9.10;;
12356;SDS011;6243;51.244;6.774;2023-11-22T00:44:20;11.57;;;8.47;;
12356;SDS011;6243;51.244;6.774;2023-11-22T00:46:45;10.17;;;8.27;;
12356;SDS011;6243;51.244;6.774;2023-11-22T00:49:11;11.40;;;9.60;;
12356;SDS011;6243;51.244;6.774;2023-11-22T00:51:37;12.00;;;9.40;;
12356;SDS011;6243;51.244;6.774;2023-11-22T00:54:02;10.90;;;9.27;;
12356;SDS011;6243;51.244;6.774;2023-11-22T00:56:28;10.03;;;8.90;;
12356;SDS011;6243;51.244;6.774;2023-11-22T00:58:55;12.70;;;9.47;;
12356;SDS011;6243;51.244;6.774;2023-11-22T01:01:21;10.77;;;9.30;;
12356;SDS011;6243;51.244;6.774;2023-11-22T01:03:47;11.50;;;9.07;;
12356;SDS011;6243;51.244;6.774;2023-11-22T01:06:13;11.33;;;9.73;;
12356;SDS011;6243;51.244;6.774;2023-11-22T01:08:38;10.67;;;8.70;;
12356;SDS011;6243;51.244;6.774;2023-11-22T01:11:04;10.87;;;9.10;;
12356;SDS011;6243;51.244;6.774;2023-11-22T01:13:30;10.80;;;9.37;;
12356;SDS011;6243;51.244;6.774;2023-11-22T01:15:57;10.97;;;9.37;;
12356;SDS011;6243;51.244;6.774;2023-11-22T01:18:22;10.93;;;8.50;;
12356;SDS011;6243;51.244;6.774;2023-11-22T01:20:48;10.37;;;8.83;;
12356;SDS011;6243;51.244;6.774;2023-11-22T01:23:13;10.97;;;8.87;;
12356;SDS011;6243;51.244;6.774;2023-11-22T01:25:39;9.53;;;8.57;;
12356;SDS011;6243;51.244;6.774;2023-11-22T01:28:05;8.50;;;7.43;;
12356;SDS011;6243;51.244;6.774;2023-11-22T01:30:30;10.00;;;7.77;;
12356;SDS011;6243;51.244;6.774;2023-11-22T01:32:57;9.40;;;7.70;;
12356;SDS011;6243;51.244;6.774;2023-11-22T01:35:23;10.73;;;8.93;;
12356;SDS011;6243;51.244;6.774;2023-11-22T01:37:48;10.57;;;8.83;;
12356;SDS011;6243;51.244;6.774;2023-11-22T01:40:14;11.70;;;9.93;;
12356;SDS011;6243;51.244;6.774;2023-11-22T01:42:39;11.83;;;9.87;;
12356;SDS011;6243;51.244;6.774;2023-11-22T01:45:05;10.47;;;9.37;;
12356;SDS011;6243;51.244;6.774;2023-11-22T01:47:31;12.40;;;9.53;;
12356;SDS011;6243;51.244;6.774;2023-11-22T01:49:59;11.80;;;10.40;;
12356;SDS011;6243;51.244;6.774;2023-11-22T01:52:24;11.23;;;10.07;;
12356;SDS011;6243;51.244;6.774;2023-11-22T01:54:51;11.20;;;9.90;;
12356;SDS011;6243;51.244;6.774;2023-11-22T01:57:16;11.80;;;9.70;;
12356;SDS011;6243;51.244;6.774;2023-11-22T01:59:44;10.60;;;9.50;;
12356;SDS011;6243;51.244;6.774;2023-11-22T02:02:11;11.27;;;9.73;;
12356;SDS011;6243;51.244;6.774;2023-11-22T02:04:36;10.23;;;9.13;;
12356;SDS011;6243;51.244;6.774;2023-11-22T02:07:03;10.73;;;8.63;;
12356;SDS011;6243;51.244;6.774;2023-11-22T02:09:29;10.97;;;8.63;;
12356;SDS011;6243;51.244;6.774;2023-11-22T02:11:55;10.90;;;7.80;;
12356;SDS011;6243;51.244;6.774;2023-11-22T02:14:21;8.23;;;7.33;;
12356;SDS011;6243;51.244;6.774;2023-11-22T02:16:46;9.20;;;7.87;;
12356;SDS011;6243;51.244;6.774;2023-11-22T02:19:13;8.63;;;7.60;;
12356;SDS011;6243;51.244;6.774;2023-11-22T02:21:40;9.83;;;7.83;;
12356;SDS011;6243;51.244;6.774;2023-11-22T02:24:07;8.60;;;7.70;;
12356;SDS011;6243;51.244;6.774;2023-11-22T02:26:33;9.70;;;7.73;;
12356;SDS011;6243;51.244;6.774;2023-11-22T02:28:59;8.33;;;7.07;;
12356;SDS011;6243;51.244;6.774;2023-11-22T02:31:24;8.97;;;7.43;;
12356;SDS011;6243;51.244;6.774;2023-11-22T02:33:50;8.37;;;7.57;;
12356;SDS011;6243;51.244;6.774;2023-11-22T02:36:16;8.07;;;6.77;;
12356;SDS011;6243;51.244;6.774;2023-11-22T02:38:41;10.20;;;6.77;;
12356;SDS011;6243;51.244;6.774;2023-11-22T02:41:08;8.03;;;6.83;;
12356;SDS011;6243;51.244;6.774;2023-11-22T02:43:34;9.67;;;7.07;;
12356;SDS011;6243;51.244;6.774;2023-11-22T02:45:59;8.27;;;7.03;;
12356;SDS011;6243;51.244;6.774;2023-11-22T02:48:25;7.40;;;6.67;;
12356;SDS011;6243;51.244;6.774;2023-11-22T02:50:50;9.37;;;7.40;;
12356;SDS011;6243;51.244;6.774;2023-11-22T02:53:16;8.60;;;6.83;;
12356;SDS011;6243;51.244;6.774;2023-11-22T02:55:42;8.50;;;7.13;;
12356;SDS011;6243;51.244;6.774;2023-11-22T02:58:09;10.60;;;6.60;;
12356;SDS011;6243;51.244;6.774;2023-11-22T03:00:34;8.97;;;7.17;;
12356;SDS011;6243;51.244;6.774;2023-11-22T03:03:00;7.80;;;6.93;;
12356;SDS011;6243;51.244;6.774;2023-11-22T03:05:25;8.00;;;7.20;;
12356;SDS011;6243;51.244;6.774;2023-11-22T03:07:51;9.57;;;7.67;;
12356;SDS011;6243;51.244;6.774;2023-11-22T03:10:17;10.77;;;7.53;;
12356;SDS011;6243;51.244;6.774;2023-11-22T03:12:48;11.23;;;7.60;;
12356;SDS011;6243;51.244;6.774;2023-11-22T03:15:15;11.00;;;8.10;;
12356;SDS011;6243;51.244;6.774;2023-11-22T03:17:40;10.40;;;8.23;;
12356;SDS011;6243;51.244;6.774;2023-11-22T03:20:06;10.57;;;8.33;;
12356;SDS011;6243;51.244;6.774;2023-11-22T03:22:33;10.07;;;8.00;;
12356;SDS011;6243;51.244;6.774;2023-11-22T03:24:58;10.40;;;8.33;;
12356;SDS011;6243;51.244;6.774;2023-11-22T03:27:24;10.00;;;8.27;;
12356;SDS011;6243;51.244;6.774;2023-11-22T03:29:49;9.23;;;8.00;;
12356;SDS011;6243;51.244;6.774;2023-11-22T03:32:16;12.20;;;8.40;;
12356;SDS011;6243;51.244;6.774;2023-11-22T03:34:42;10.43;;;8.37;;
12356;SDS011;6243;51.244;6.774;2023-11-22T03:37:08;11.53;;;8.53;;
12356;SDS011;6243;51.244;6.774;2023-11-22T03:39:33;10.90;;;8.07;;
12356;SDS011;6243;51.244;6.774;2023-11-22T03:41:59;8.93;;;7.87;;
12356;SDS011;6243;51.244;6.774;2023-11-22T03:44:25;9.67;;;8.53;;
12356;SDS011;6243;51.244;6.774;2023-11-22T03:46:50;9.87;;;8.87;;
12356;SDS011;6243;51.244;6.774;2023-11-22T03:49:17;10.33;;;8.90;;
12356;SDS011;6243;51.244;6.774;2023-11-22T03:51:43;11.80;;;9.13;;
12356;SDS011;6243;51.244;6.774;2023-11-22T03:54:09;10.93;;;9.20;;
12356;SDS011;6243;51.244;6.774;2023-11-22T03:56:34;11.47;;;8.60;;
12356;SDS011;6243;51.244;6.774;2023-11-22T03:59:00;10.67;;;9.57;;
12356;SDS011;6243;51.244;6.774;2023-11-22T04:01:25;10.60;;;8.80;;
12356;SDS011;6243;51.244;6.774;2023-11-22T04:03:51;11.37;;;9.77;;
12356;SDS011;6243;51.244;6.774;2023-11-22T04:06:18;11.37;;;9.40;;
12356;SDS011;6243;51.244;6.774;2023-11-22T04:08:43;10.97;;;8.43;;
12356;SDS011;6243;51.244;6.774;2023-11-22T04:11:09;11.67;;;9.50;;
12356;SDS011;6243;51.244;6.774;2023-11-22T04:13:35;11.83;;;9.67;;
12356;SDS011;6243;51.244;6.774;2023-11-22T04:16:02;10.47;;;9.30;;
12356;SDS011;6243;51.244;6.774;2023-11-22T04:18:28;12.27;;;10.13;;
12356;SDS011;6243;51.244;6.774;2023-11-22T04:20:53;13.97;;;9.43;;
12356;SDS011;6243;51.244;6.774;2023-11-22T04:23:20;12.03;;;10.07;;
12356;SDS011;6243;51.244;6.774;2023-11-22T04:25:46;12.07;;;9.90;;
12356;SDS011;6243;51.244;6.774;2023-11-22T04:28:12;12.43;;;9.07;;
12356;SDS011;6243;51.244;6.774;2023-11-22T04:30:37;10.47;;;9.37;;
12356;SDS011;6243;51.244;6.774;2023-11-22T04:33:03;12.43;;;9.43;;
12356;SDS011;6243;51.244;6.774;2023-11-22T04:35:29;12.53;;;9.90;;
12356;SDS011;6243;51.244;6.774;2023-11-22T04:37:54;12.33;;;9.83;;
12356;SDS011;6243;51.244;6.774;2023-11-22T04:40:21;10.53;;;9.43;;
12356;SDS011;6243;51.244;6.774;2023-11-22T04:42:47;13.40;;;10.20;;
12356;SDS011;6243;51.244;6.774;2023-11-22T04:45:12;14.03;;;11.20;;
12356;SDS011;6243;51.244;6.774;2023-11-22T04:47:38;13.60;;;10.63;;
12356;SDS011;6243;51.244;6.774;2023-11-22T04:50:04;13.47;;;11.23;;
12356;SDS011;6243;51.244;6.774;2023-11-22T04:52:30;13.13;;;10.77;;
12356;SDS011;6243;51.244;6.774;2023-11-22T04:54:56;13.77;;;11.27;;
12356;SDS011;6243;51.244;6.774;2023-11-22T04:57:22;13.93;;;10.80;;
12356;SDS011;6243;51.244;6.774;2023-11-22T04:59:48;12.30;;;10.20;;
12356;SDS011;6243;51.244;6.774;2023-11-22T05:02:14;12.87;;;10.37;;
12356;SDS011;6243;51.244;6.774;2023-11-22T05:04:39;11.27;;;9.73;;
12356;SDS011;6243;51.244;6.774;2023-11-22T05:07:05;12.17;;;10.00;;
12356;SDS011;6243;51.244;6.774;2023-11-22T05:09:30;11.93;;;9.80;;
12356;SDS011;6243;51.244;6.774;2023-11-22T05:11:56;12.13;;;10.20;;
12356;SDS011;6243;51.244;6.774;2023-11-22T05:14:23;11.93;;;9.90;;
12356;SDS011;6243;51.244;6.774;2023-11-22T05:16:48;12.17;;;9.67;;
12356;SDS011;6243;51.244;6.774;2023-11-22T05:19:14;14.67;;;10.40;;
12356;SDS011;6243;51.244;6.774;2023-11-22T05:21:40;11.40;;;9.67;;
12356;SDS011;6243;51.244;6.774;2023-11-22T05:24:06;12.70;;;9.70;;
12356;SDS011;6243;51.244;6.774;2023-11-22T05:26:32;12.03;;;9.80;;
12356;SDS011;6243;51.244;6.774;2023-11-22T05:28:58;11.73;;;9.20;;
12356;SDS011;6243;51.244;6.774;2023-11-22T05:31:25;11.23;;;9.40;;
12356;SDS011;6243;51.244;6.774;2023-11-22T05:33:50;13.67;;;9.70;;
12356;SDS011;6243;51.244;6.774;2023-11-22T05:36:16;10.33;;;9.27;;
12356;SDS011;6243;51.244;6.774;2023-11-22T05:38:42;12.07;;;9.67;;
12356;SDS011;6243;51.244;6.774;2023-11-22T05:41:07;11.07;;;9.40;;
12356;SDS011;6243;51.244;6.774;2023-11-22T05:43:33;12.37;;;9.50;;
12356;SDS011;6243;51.244;6.774;2023-11-22T05:45:58;12.37;;;9.33;;
12356;SDS011;6243;51.244;6.774;2023-11-22T05:48:25;11.60;;;9.30;;
12356;SDS011;6243;51.244;6.774;2023-11-22T05:50:51;12.73;;;9.43;;
12356;SDS011;6243;51.244;6.774;2023-11-22T05:53:17;12.73;;;9.23;;
12356;SDS011;6243;51.244;6.774;2023-11-22T05:55:42;10.53;;;8.73;;
12356;SDS011;6243;51.244;6.774;2023-11-22T05:58:08;11.87;;;9.20;;
12356;SDS011;6243;51.244;6.774;2023-11-22T06:00:34;9.90;;;8.03;;
12356;SDS011;6243;51.244;6.774;2023-11-22T06:02:59;9.33;;;8.23;;
12356;SDS011;6243;51.244;6.774;2023-11-22T06:05:26;10.50;;;8.73;;
12356;SDS011;6243;51.244;6.774;2023-11-22T06:07:52;11.80;;;9.00;;
12356;SDS011;6243;51.244;6.774;2023-11-22T06:10:17;11.07;;;8.83;;
12356;SDS011;6243;51.244;6.774;2023-11-22T06:12:43;11.80;;;8.90;;
12356;SDS011;6243;51.244;6.774;2023-11-22T06:15:09;11.00;;;8.63;;
12356;SDS011;6243;51.244;6.774;2023-11-22T06:17:34;10.57;;;8.87;;
12356;SDS011;6243;51.244;6.774;2023-11-22T06:20:00;11.67;;;8.90;;
12356;SDS011;6243;51.244;6.774;2023-11-22T06:22:27;11.07;;;8.50;;
12356;SDS011;6243;51.244;6.774;2023-11-22T06:24:53;9.60;;;8.43;;
12356;SDS011;6243;51.244;6.774;2023-11-22T06:27:18;11.03;;;8.63;;
12356;SDS011;6243;51.244;6.774;2023-11-22T06:29:44;10.53;;;8.23;;
12356;SDS011;6243;51.244;6.774;2023-11-22T06:32:09;9.40;;;7.83;;
12356;SDS011;6243;51.244;6.774;2023-11-22T06:34:35;9.80;;;8.03;;
12356;SDS011;6243;51.244;6.774;2023-11-22T06:37:01;10.13;;;8.07;;
12356;SDS011;6243;51.244;6.774;2023-11-22T06:39:28;9.83;;;7.60;;
12356;SDS011;6243;51.244;6.774;2023-11-22T06:41:53;10.50;;;7.67;;
12356;SDS011;6243;51.244;6.774;2023-11-22T06:44:19;10.17;;;7.60;;
12356;SDS011;6243;51.244;6.774;2023-11-22T06:46:45;9.20;;;7.67;;
12356;SDS011;6243;51.244;6.774;2023-11-22T06:49:10;10.57;;;8.10;;
12356;SDS011;6243;51.244;6.774;2023-11-22T06:51:36;10.60;;;8.23;;
12356;SDS011;6243;51.244;6.774;2023-11-22T06:54:01;9.50;;;8.00;;
12356;SDS011;6243;51.244;6.774;2023-11-22T06:56:28;9.00;;;7.07;;
12356;SDS011;6243;51.244;6.774;2023-11-22T06:58:54;9.33;;;7.07;;
12356;SDS011;6243;51.244;6.774;2023-11-22T07:01:22;10.03;;;7.77;;
12356;SDS011;6243;51.244;6.774;2023-11-22T07:03:48;9.57;;;7.43;;
12356;SDS011;6243;51.244;6.774;2023-11-22T07:06:13;10.67;;;7.67;;
12356;SDS011;6243;51.244;6.774;2023-11-22T07:08:39;9.80;;;7.77;;
12356;SDS011;6243;51.244;6.774;2023-11-22T07:11:05;9.03;;;7.47;;
12356;SDS011;6243;51.244;6.774;2023-11-22T07:13:31;10.43;;;7.40;;
12356;SDS011;6243;51.244;6.774;2023-11-22T07:15:57;9.87;;;7.90;;
12356;SDS011;6243;51.244;6.774;2023-11-22T07:18:23;10.57;;;8.30;;
12356;SDS011;6243;51.244;6.774;2023-11-22T07:20:48;10.20;;;7.80;;
12356;SDS011;6243;51.244;6.774;2023-11-22T07:23:14;9.80;;;7.57;;
12356;SDS011;6243;51.244;6.774;2023-11-22T07:25:39;9.53;;;7.40;;
12356;SDS011;6243;51.244;6.774;2023-11-22T07:28:05;8.93;;;7.40;;
12356;SDS011;6243;51.244;6.774;2023-11-22T07:30:33;10.13;;;7.87;;
12356;SDS011;6243;51.244;6.774;2023-11-22T07:32:59;9.20;;;7.73;;
12356;SDS011;6243;51.244;6.774;2023-11-22T07:35:24;9.77;;;7.97;;
12356;SDS011;6243;51.244;6.774;2023-11-22T07:37:50;10.00;;;7.60;;
12356;SDS011;6243;51.244;6.774;2023-11-22T07:40:15;11.43;;;7.63;;
12356;SDS011;6243;51.244;6.774;2023-11-22T07:42:41;11.40;;;7.57;;
12356;SDS011;6243;51.244;6.774;2023-11-22T07:45:07;9.90;;;7.43;;
12356;SDS011;6243;51.244;6.774;2023-11-22T07:47:34;10.30;;;7.57;;
12356;SDS011;6243;51.244;6.774;2023-11-22T07:50:00;9.87;;;7.50;;
12356;SDS011;6243;51.244;6.774;2023-11-22T07:52:26;9.07;;;6.70;;
12356;SDS011;6243;51.244;6.774;2023-11-22T07:54:51;10.67;;;7.97;;
12356;SDS011;6243;51.244;6.774;2023-11-22T07:57:17;12.13;;;7.83;;
12356;SDS011;6243;51.244;6.774;2023-11-22T07:59:43;10.93;;;8.23;;
12356;SDS011;6243;51.244;6.774;2023-11-22T08:02:08;15.23;;;8.63;;
12356;SDS011;6243;51.244;6.774;2023-11-22T08:04:35;12.73;;;8.90;;
12356;SDS011;6243;51.244;6.774;2023-11-22T08:07:01;10.77;;;7.50;;
12356;SDS011;6243;51.244;6.774;2023-11-22T08:09:26;11.43;;;7.60;;
12356;SDS011;6243;51.244;6.774;2023-11-22T08:11:52;8.73;;;7.00;;
12356;SDS011;6243;51.244;6.774;2023-11-22T08:14:17;10.73;;;7.50;;
12356;SDS011;6243;51.244;6.774;2023-11-22T08:16:43;9.20;;;7.53;;
12356;SDS011;6243;51.244;6.774;2023-11-22T08:19:08;9.67;;;7.13;;
12356;SDS011;6243;51.244;6.774;2023-11-22T08:21:35;11.67;;;7.87;;
12356;SDS011;6243;51.244;6.774;2023-11-22T08:24:01;9.23;;;7.33;;
12356;SDS011;6243;51.244;6.774;2023-11-22T08:26:27;11.83;;;7.50;;
12356;SDS011;6243;51.244;6.774;2023-11-22T08:28:53;11.27;;;7.30;;
12356;SDS011;6243;51.244;6.774;2023-11-22T08:31:18;9.13;;;7.70;;
12356;SDS011;6243;51.244;6.774;2023-11-22T08:33:44;10.37;;;7.73;;
12356;SDS011;6243;51.244;6.774;2023-11-22T08:36:10;8.80;;;6.80;;
12356;SDS011;6243;51.244;6.774;2023-11-22T08:38:37;8.83;;;7.40;;
12356;SDS011;6243;51.244;6.774;2023-11-22T08:41:03;9.57;;;6.63;;
12356;SDS011;6243;51.244;6.774;2023-11-22T08:43:29;10.30;;;7.70;;
12356;SDS011;6243;51.244;6.774;2023-11-22T08:45:54;9.27;;;7.27;;
12356;SDS011;6243;51.244;6.774;2023-11-22T08:48:20;8.43;;;7.40;;
12356;SDS011;6243;51.244;6.774;2023-11-22T08:50:46;10.23;;;8.10;;
12356;SDS011;6243;51.244;6.774;2023-11-22T08:53:11;7.63;;;6.83;;
12356;SDS011;6243;51.244;6.774;2023-11-22T08:55:38;9.47;;;7.37;;
12356;SDS011;6243;51.244;6.774;2023-11-22T08:58:04;8.73;;;7.13;;
12356;SDS011;6243;51.244;6.774;2023-11-22T09:00:30;11.03;;;7.33;;
12356;SDS011;6243;51.244;6.774;2023-11-22T09:02:56;8.47;;;6.93;;
12356;SDS011;6243;51.244;6.774;2023-11-22T09:05:21;8.77;;;6.90;;
12356;SDS011;6243;51.244;6.774;2023-11-22T09:07:47;8.57;;;6.97;;
12356;SDS011;6243;51.244;6.774;2023-11-22T09:10:13;7.20;;;6.20;;
12356;SDS011;6243;51.244;6.774;2023-11-22T09:12:41;9.50;;;6.87;;
12356;SDS011;6243;51.244;6.774;2023-11-22T09:15:07;8.10;;;6.70;;
12356;SDS011;6243;51.244;6.774;2023-11-22T09:17:34;7.90;;;6.63;;
12356;SDS011;6243;51.244;6.774;2023-11-22T09:20:00;10.73;;;7.07;;
12356;SDS011;6243;51.244;6.774;2023-11-22T09:22:25;10.67;;;7.73;;
12356;SDS011;6243;51.244;6.774;2023-11-22T09:24:51;8.10;;;7.03;;
12356;SDS011;6243;51.244;6.774;2023-11-22T09:27:17;8.50;;;6.90;;
12356;SDS011;6243;51.244;6.774;2023-11-22T09:29:44;10.10;;;6.80;;
12356;SDS011;6243;51.244;6.774;2023-11-22T09:32:09;10.30;;;7.40;;
12356;SDS011;6243;51.244;6.774;2023-11-22T09:34:35;7.23;;;6.20;;
12356;SDS011;6243;51.244;6.774;2023-11-22T09:37:00;9.80;;;7.53;;
12356;SDS011;6243;51.244;6.774;2023-11-22T09:39:26;9.57;;;7.20;;
12356;SDS011;6243;51.244;6.774;2023-11-22T09:41:52;9.67;;;8.10;;
12356;SDS011;6243;51.244;6.774;2023-11-22T09:44:17;7.67;;;6.87;;
12356;SDS011;6243;51.244;6.774;2023-11-22T09:46:45;10.60;;;6.97;;
12356;SDS011;6243;51.244;6.774;2023-11-22T09:49:14;9.17;;;7.40;;
12356;SDS011;6243;51.244;6.774;2023-11-22T09:51:45;7.53;;;6.70;;
12356;SDS011;6243;51.244;6.774;2023-11-22T09:54:13;10.47;;;8.07;;
12356;SDS011;6243;51.244;6.774;2023-11-22T09:56:41;8.90;;;7.03;;
12356;SDS011;6243;51.244;6.774;2023-11-22T09:59:07;7.57;;;6.80;;
12356;SDS011;6243;51.244;6.774;2023-11-22T10:01:36;9.50;;;7.00;;
12356;SDS011;6243;51.244;6.774;2023-11-22T10:04:04;8.97;;;6.70;;
12356;SDS011;6243;51.244;6.774;2023-11-22T10:06:29;8.00;;;7.17;;
12356;SDS011;6243;51.244;6.774;2023-11-22T10:08:55;7.73;;;6.53;;
12356;SDS011;6243;51.244;6.774;2023-11-22T10:11:21;8.00;;;7.00;;
12356;SDS011;6243;51.244;6.774;2023-11-22T10:13:47;8.63;;;6.97;;
12356;SDS011;6243;51.244;6.774;2023-11-22T10:16:13;8.57;;;7.17;;
12356;SDS011;6243;51.244;6.774;2023-11-22T10:18:39;8.50;;;6.43;;
12356;SDS011;6243;51.244;6.774;2023-11-22T10:21:17;7.80;;;6.47;;
12356;SDS011;6243;51.244;6.774;2023-11-22T10:23:44;7.07;;;6.30;;
12356;SDS011;6243;51.244;6.774;2023-11-22T10:26:09;7.70;;;6.53;;
12356;SDS011;6243;51.244;6.774;2023-11-22T10:28:35;8.63;;;6.70;;
12356;SDS011;6243;51.244;6.774;2023-11-22T10:31:01;9.60;;;6.63;;
12356;SDS011;6243;51.244;6.774;2023-11-22T10:33:32;8.07;;;6.47;;
12356;SDS011;6243;51.244;6.774;2023-11-22T10:35:58;8.03;;;6.37;;
12356;SDS011;6243;51.244;6.774;2023-11-22T10:38:25;6.80;;;6.10;;
12356;SDS011;6243;51.244;6.774;2023-11-22T10:40:50;8.53;;;6.57;;
12356;SDS011;6243;51.244;6.774;2023-11-22T10:43:21;7.93;;;6.23;;
12356;SDS011;6243;51.244;6.774;2023-11-22T10:45:48;6.33;;;5.70;;
12356;SDS011;6243;51.244;6.774;2023-11-22T10:48:15;7.67;;;5.57;;
12356;SDS011;6243;51.244;6.774;2023-11-22T10:50:41;6.90;;;5.00;;
12356;SDS011;6243;51.244;6.774;2023-11-22T10:53:06;5.97;;;5.03;;
12356;SDS011;6243;51.244;6.774;2023-11-22T10:55:37;7.37;;;5.60;;
12356;SDS011;6243;51.244;6.774;2023-11-22T10:58:07;8.07;;;5.63;;
12356;SDS011;6243;51.244;6.774;2023-11-22T11:00:34;7.17;;;5.93;;
12356;SDS011;6243;51.244;6.774;2023-11-22T11:03:03;8.17;;;4.80;;
12356;SDS011;6243;51.244;6.774;2023-11-22T11:05:33;5.10;;;4.37;;
12356;SDS011;6243;51.244;6.774;2023-11-22T11:08:00;6.97;;;4.37;;
12356;SDS011;6243;51.244;6.774;2023-11-22T11:10:30;4.30;;;3.90;;
12356;SDS011;6243;51.244;6.774;2023-11-22T11:12:58;5.03;;;3.53;;
12356;SDS011;6243;51.244;6.774;2023-11-22T11:15:25;4.57;;;3.80;;
12356;SDS011;6243;51.244;6.774;2023-11-22T11:17:50;6.60;;;4.30;;
12356;SDS011;6243;51.244;6.774;2023-11-22T11:20:16;6.60;;;3.57;;
12356;SDS011;6243;51.244;6.774;2023-11-22T11:22:42;5.00;;;3.80;;
12356;SDS011;6243;51.244;6.774;2023-11-22T11:25:08;4.53;;;3.90;;
12356;SDS011;6243;51.244;6.774;2023-11-22T11:27:38;5.63;;;4.43;;
12356;SDS011;6243;51.244;6.774;2023-11-22T11:33:04;4.97;;;3.70;;
12356;SDS011;6243;51.244;6.774;2023-11-22T11:35:37;5.70;;;4.20;;
12356;SDS011;6243;51.244;6.774;2023-11-22T11:38:03;5.07;;;4.17;;
12356;SDS011;6243;51.244;6.774;2023-11-22T11:40:31;4.73;;;4.00;;
12356;SDS011;6243;51.244;6.774;2023-11-22T11:42:56;5.20;;;4.30;;
12356;SDS011;6243;51.244;6.774;2023-11-22T11:45:22;4.80;;;3.70;;
12356;SDS011;6243;51.244;6.774;2023-11-22T11:47:48;5.57;;;4.00;;
12356;SDS011;6243;51.244;6.774;2023-11-22T11:50:15;5.23;;;4.17;;
12356;SDS011;6243;51.244;6.774;2023-11-22T11:52:41;4.43;;;4.00;;
12356;SDS011;6243;51.244;6.774;2023-11-22T11:55:07;4.93;;;4.30;;
12356;SDS011;6243;51.244;6.774;2023-11-22T11:57:32;5.17;;;3.87;;
12356;SDS011;6243;51.244;6.774;2023-11-22T11:59:58;3.80;;;3.50;;
12356;SDS011;6243;51.244;6.774;2023-11-22T12:02:24;5.77;;;4.03;;
12356;SDS011;6243;51.244;6.774;2023-11-22T12:04:49;4.17;;;3.23;;
12356;SDS011;6243;51.244;6.774;2023-11-22T12:07:20;5.30;;;3.80;;
12356;SDS011;6243;51.244;6.774;2023-11-22T12:09:46;3.90;;;3.50;;
12356;SDS011;6243;51.244;6.774;2023-11-22T12:12:12;4.47;;;3.47;;
12356;SDS011;6243;51.244;6.774;2023-11-22T12:14:38;4.00;;;3.60;;
12356;SDS011;6243;51.244;6.774;2023-11-22T12:17:04;4.43;;;3.30;;
12356;SDS011;6243;51.244;6.774;2023-11-22T12:19:30;5.03;;;3.60;;
12356;SDS011;6243;51.244;6.774;2023-11-22T12:21:56;3.60;;;2.90;;
12356;SDS011;6243;51.244;6.774;2023-11-22T12:24:23;5.53;;;3.23;;
12356;SDS011;6243;51.244;6.774;2023-11-22T12:26:49;3.70;;;3.23;;
12356;SDS011;6243;51.244;6.774;2023-11-22T12:29:15;4.00;;;3.00;;
12356;SDS011;6243;51.244;6.774;2023-11-22T12:31:45;5.40;;;3.83;;
12356;SDS011;6243;51.244;6.774;2023-11-22T12:34:12;3.60;;;3.20;;
12356;SDS011;6243;51.244;6.774;2023-11-22T12:36:40;5.03;;;3.30;;
12356;SDS011;6243;51.244;6.774;2023-11-22T12:39:06;4.47;;;3.63;;
12356;SDS011;6243;51.244;6.774;2023-11-22T12:41:34;4.00;;;3.37;;
12356;SDS011;6243;51.244;6.774;2023-11-22T12:44:03;3.73;;;3.33;;
12356;SDS011;6243;51.244;6.774;2023-11-22T12:46:44;3.77;;;3.27;;
12356;SDS011;6243;51.244;6.774;2023-11-22T12:49:10;4.67;;;3.40;;
12356;SDS011;6243;51.244;6.774;2023-11-22T12:51:36;5.23;;;3.67;;
12356;SDS011;6243;51.244;6.774;2023-11-22T12:54:01;5.67;;;3.63;;
12356;SDS011;6243;51.244;6.774;2023-11-22T12:56:27;5.63;;;3.50;;
12356;SDS011;6243;51.244;6.774;2023-11-22T12:58:54;4.73;;;3.23;;
12356;SDS011;6243;51.244;6.774;2023-11-22T13:01:20;4.63;;;3.10;;
12356;SDS011;6243;51.244;6.774;2023-11-22T13:03:46;8.13;;;3.47;;
12356;SDS011;6243;51.244;6.774;2023-11-22T13:06:11;4.40;;;3.60;;
12356;SDS011;6243;51.244;6.774;2023-11-22T13:08:37;5.77;;;3.50;;
12356;SDS011;6243;51.244;6.774;2023-11-22T13:11:02;7.47;;;3.80;;
12356;SDS011;6243;51.244;6.774;2023-11-22T13:13:29;5.37;;;3.70;;
12356;SDS011;6243;51.244;6.774;2023-11-22T13:15:56;4.83;;;3.80;;
12356;SDS011;6243;51.244;6.774;2023-11-22T13:18:21;6.07;;;4.13;;
12356;SDS011;6243;51.244;6.774;2023-11-22T13:20:47;5.37;;;4.27;;
12356;SDS011;6243;51.244;6.774;2023-11-22T13:23:13;6.57;;;4.30;;
12356;SDS011;6243;51.244;6.774;2023-11-22T13:25:38;5.80;;;4.60;;
12356;SDS011;6243;51.244;6.774;2023-11-22T13:28:04;5.40;;;4.63;;
12356;SDS011;6243;51.244;6.774;2023-11-22T13:30:30;7.43;;;4.93;;
12356;SDS011;6243;51.244;6.774;2023-11-22T13:32:57;5.53;;;4.30;;
12356;SDS011;6243;51.244;6.774;2023-11-22T13:35:23;6.17;;;4.50;;
12356;SDS011;6243;51.244;6.774;2023-11-22T13:37:49;6.40;;;4.63;;
12356;SDS011;6243;51.244;6.774;2023-11-22T13:40:15;6.50;;;4.97;;
12356;SDS011;6243;51.244;6.774;2023-11-22T13:42:42;6.50;;;5.17;;
12356;SDS011;6243;51.244;6.774;2023-11-22T13:45:09;5.47;;;4.77;;
12356;SDS011;6243;51.244;6.774;2023-11-22T13:47:35;7.33;;;4.77;;
12356;SDS011;6243;51.244;6.774;2023-11-22T13:50:02;6.10;;;4.90;;
12356;SDS011;6243;51.244;6.774;2023-11-22T13:52:28;6.27;;;3.93;;
12356;SDS011;6243;51.244;6.774;2023-11-22T13:54:54;4.70;;;3.40;;
12356;SDS011;6243;51.244;6.774;2023-11-22T13:57:20;4.27;;;3.30;;
12356;SDS011;6243;51.244;6.774;2023-11-22T13:59:45;3.83;;;3.13;;
12356;SDS011;6243;51.244;6.774;2023-11-22T14:02:11;4.70;;;3.23;;
12356;SDS011;6243;51.244;6.774;2023-11-22T14:04:37;4.33;;;2.90;;
12356;SDS011;6243;51.244;6.774;2023-11-22T14:07:04;4.83;;;2.83;;
12356;SDS011;6243;51.244;6.774;2023-11-22T14:09:30;2.60;;;2.33;;
12356;SDS011;6243;51.244;6.774;2023-11-22T14:11:56;2.50;;;2.30;;
12356;SDS011;6243;51.244;6.774;2023-11-22T14:14:22;3.97;;;2.27;;
12356;SDS011;6243;51.244;6.774;2023-11-22T14:16:47;2.67;;;2.20;;
12356;SDS011;6243;51.244;6.774;2023-11-22T14:19:13;2.40;;;2.17;;
12356;SDS011;6243;51.244;6.774;2023-11-22T14:21:38;3.00;;;2.30;;
12356;SDS011;6243;51.244;6.774;2023-11-22T14:24:06;2.60;;;2.40;;
12356;SDS011;6243;51.244;6.774;2023-11-22T14:26:32;2.37;;;2.10;;
12356;SDS011;6243;51.244;6.774;2023-11-22T14:28:57;2.37;;;2.17;;
12356;SDS011;6243;51.244;6.774;2023-11-22T14:31:23;4.90;;;2.20;;
12356;SDS011;6243;51.244;6.774;2023-11-22T14:33:48;3.10;;;2.50;;
12356;SDS011;6243;51.244;6.774;2023-11-22T14:36:14;4.17;;;2.47;;
12356;SDS011;6243;51.244;6.774;2023-11-22T14:38:41;3.27;;;2.47;;
12356;SDS011;6243;51.244;6.774;2023-11-22T14:41:08;2.60;;;2.27;;
12356;SDS011;6243;51.244;6.774;2023-11-22T14:43:34;4.23;;;2.63;;
12356;SDS011;6243;51.244;6.774;2023-11-22T14:45:59;4.27;;;2.60;;
12356;SDS011;6243;51.244;6.774;2023-11-22T14:48:25;4.27;;;3.10;;
12356;SDS011;6243;51.244;6.774;2023-11-22T14:50:51;5.03;;;3.60;;